createdAt,value
2022-10-05T00:01:23.929Z,13.30
2022-10-05T00:03:54.295Z,13.30
2022-10-05T00:06:22.950Z,13.20
2022-10-05T00:08:51.450Z,13.20
2022-10-05T00:11:21.472Z,13.10
2022-10-05T00:13:50.061Z,13.20
2022-10-05T00:16:21.122Z,13.10
2022-10-05T00:18:52.278Z,13.10
2022-10-05T00:21:23.657Z,13.10
2022-10-05T00:23:52.653Z,13.10
2022-10-05T00:26:25.345Z,13.10
2022-10-05T00:28:54.659Z,13.00
2022-10-05T00:31:25.637Z,13.00
2022-10-05T00:33:55.012Z,13.00
2022-10-05T00:36:26.232Z,12.90
2022-10-05T00:38:55.895Z,12.90
2022-10-05T00:41:33.368Z,12.90
2022-10-05T00:44:19.531Z,12.80
2022-10-05T00:46:58.030Z,12.80
2022-10-05T00:49:41.564Z,12.80
2022-10-05T00:52:20.468Z,12.70
2022-10-05T00:55:00.361Z,12.70
2022-10-05T00:57:41.960Z,12.70
2022-10-05T01:00:13.669Z,12.60
2022-10-05T01:02:53.455Z,12.60
2022-10-05T01:05:35.181Z,12.60
2022-10-05T01:08:11.750Z,12.70
2022-10-05T01:10:46.145Z,12.70
2022-10-05T01:13:22.450Z,12.70
2022-10-05T01:15:59.565Z,12.70
2022-10-05T01:18:38.841Z,12.70
2022-10-05T01:21:17.214Z,12.70
2022-10-05T01:24:29.388Z,12.70
2022-10-05T01:27:41.546Z,12.70
2022-10-05T01:30:14.316Z,12.70
2022-10-05T01:32:50.224Z,12.70
2022-10-05T01:35:31.260Z,12.70
2022-10-05T01:38:10.858Z,12.70
2022-10-05T01:40:46.159Z,12.70
2022-10-05T01:43:23.279Z,12.60
2022-10-05T01:46:01.850Z,12.60
2022-10-05T01:48:49.069Z,12.60
2022-10-05T01:51:27.832Z,12.60
2022-10-05T01:54:04.692Z,12.60
2022-10-05T01:56:40.800Z,12.60
2022-10-05T01:59:20.526Z,12.60
2022-10-05T02:01:56.070Z,12.60
2022-10-05T02:05:00.401Z,12.60
2022-10-05T02:07:26.189Z,12.60
2022-10-05T02:10:00.897Z,12.60
2022-10-05T02:12:33.922Z,12.60
2022-10-05T02:15:10.812Z,12.60
2022-10-05T02:17:44.311Z,12.50
2022-10-05T02:20:16.028Z,12.50
2022-10-05T02:22:48.480Z,12.50
2022-10-05T02:25:19.890Z,12.50
2022-10-05T02:27:59.304Z,12.50
2022-10-05T02:30:30.945Z,12.50
2022-10-05T02:33:15.144Z,12.50
2022-10-05T02:35:44.086Z,12.50
2022-10-05T02:38:23.216Z,12.50
2022-10-05T02:40:58.559Z,12.50
2022-10-05T02:43:40.310Z,12.50
2022-10-05T02:46:21.792Z,12.50
2022-10-05T02:48:57.905Z,12.40
2022-10-05T02:51:29.716Z,12.40
2022-10-05T02:54:10.398Z,12.40
2022-10-05T02:56:52.169Z,12.50
2022-10-05T02:59:27.548Z,12.50
2022-10-05T03:02:01.301Z,12.50
2022-10-05T03:04:36.560Z,12.50
2022-10-05T03:07:13.710Z,12.60
2022-10-05T03:09:47.579Z,12.60
2022-10-05T03:12:35.168Z,12.60
2022-10-05T03:15:17.550Z,12.60
2022-10-05T03:17:54.133Z,12.60
2022-10-05T03:20:35.100Z,12.60
2022-10-05T03:23:05.487Z,12.60
2022-10-05T03:25:45.174Z,12.60
2022-10-05T03:28:20.559Z,12.60
2022-10-05T03:30:58.846Z,12.50
2022-10-05T03:33:37.444Z,12.50
2022-10-05T03:36:12.031Z,12.50
2022-10-05T03:38:48.442Z,12.50
2022-10-05T03:41:23.865Z,12.50
2022-10-05T03:44:26.596Z,12.50
2022-10-05T03:47:06.979Z,12.50
2022-10-05T03:49:58.289Z,12.50
2022-10-05T03:52:33.314Z,12.50
2022-10-05T03:55:06.826Z,12.50
2022-10-05T03:57:40.016Z,12.40
2022-10-05T04:00:16.120Z,12.40
2022-10-05T04:02:51.116Z,12.40
2022-10-05T04:05:24.287Z,12.40
2022-10-05T04:07:57.945Z,12.40
2022-10-05T04:10:29.450Z,12.40
2022-10-05T04:13:08.240Z,12.50
2022-10-05T04:15:43.311Z,12.50
2022-10-05T04:18:25.000Z,12.50
2022-10-05T04:20:58.680Z,12.50
2022-10-05T04:23:41.132Z,12.60
2022-10-05T04:26:14.115Z,12.60
2022-10-05T04:28:51.530Z,12.50
2022-10-05T04:31:38.448Z,12.60
2022-10-05T04:34:20.331Z,12.60
2022-10-05T04:36:57.163Z,12.60
2022-10-05T04:39:36.105Z,12.60
2022-10-05T04:42:12.325Z,12.60
2022-10-05T04:44:59.209Z,12.60
2022-10-05T04:48:02.181Z,12.60
2022-10-05T04:50:45.498Z,12.60
2022-10-05T04:53:23.928Z,12.50
2022-10-05T04:55:58.360Z,12.50
2022-10-05T04:58:42.231Z,12.50
2022-10-05T05:01:29.019Z,12.50
2022-10-05T05:04:15.474Z,12.50
2022-10-05T05:06:52.590Z,12.50
2022-10-05T05:10:03.119Z,12.50
2022-10-05T05:12:41.864Z,12.40
2022-10-05T05:15:30.038Z,12.40
2022-10-05T05:18:18.671Z,12.40
2022-10-05T05:20:57.172Z,12.30
2022-10-05T05:23:33.689Z,12.40
2022-10-05T05:26:12.920Z,12.40
2022-10-05T05:28:50.054Z,12.40
2022-10-05T05:31:24.695Z,12.40
2022-10-05T05:34:02.120Z,12.40
2022-10-05T05:36:48.950Z,12.40
2022-10-05T05:39:29.579Z,12.50
2022-10-05T05:42:03.010Z,12.50
2022-10-05T05:44:38.780Z,12.50
2022-10-05T05:47:19.883Z,12.50
2022-10-05T05:50:17.065Z,12.50
2022-10-05T05:52:48.756Z,12.50
2022-10-05T05:55:29.030Z,12.60
2022-10-05T05:58:05.735Z,12.60
2022-10-05T06:00:38.933Z,12.60
2022-10-05T06:03:15.479Z,12.60
2022-10-05T06:05:46.498Z,12.60
2022-10-05T06:08:19.168Z,12.70
2022-10-05T06:10:52.275Z,12.70
2022-10-05T06:13:26.581Z,12.70
2022-10-05T06:15:59.959Z,12.70
2022-10-05T06:18:30.180Z,12.80
2022-10-05T06:21:03.072Z,12.80
2022-10-05T06:23:37.938Z,12.90
2022-10-05T06:26:21.171Z,13.00
2022-10-05T06:28:55.972Z,13.00
2022-10-05T06:31:36.885Z,13.10
2022-10-05T06:34:18.346Z,13.10
2022-10-05T06:36:51.445Z,13.20
2022-10-05T06:39:42.755Z,13.20
2022-10-05T06:42:38.568Z,13.30
2022-10-05T06:45:20.121Z,13.40
2022-10-05T06:47:53.109Z,13.40
2022-10-05T06:50:31.250Z,13.40
2022-10-05T06:53:18.159Z,13.50
2022-10-05T06:55:53.468Z,13.50
2022-10-05T06:58:34.950Z,13.50
2022-10-05T07:01:11.443Z,13.60
2022-10-05T07:03:56.904Z,13.60
2022-10-05T07:06:29.173Z,13.70
2022-10-05T07:09:20.757Z,13.70
2022-10-05T07:12:12.299Z,13.80
2022-10-05T07:15:04.359Z,13.80
2022-10-05T07:17:46.389Z,13.90
2022-10-05T07:20:20.359Z,13.90
2022-10-05T07:23:14.886Z,14.00
2022-10-05T07:25:50.335Z,14.00
2022-10-05T07:28:27.125Z,14.00
2022-10-05T07:31:01.498Z,14.10
2022-10-05T07:33:37.300Z,14.20
2022-10-05T07:36:52.249Z,14.20
2022-10-05T07:39:58.674Z,14.30
2022-10-05T07:42:29.208Z,14.50
2022-10-05T07:45:04.894Z,14.60
2022-10-05T07:47:38.299Z,14.60
2022-10-05T07:50:18.459Z,14.80
2022-10-05T07:52:50.040Z,14.90
2022-10-05T07:55:21.796Z,14.90
2022-10-05T07:57:57.452Z,15.00
2022-10-05T08:00:31.211Z,15.00
2022-10-05T08:03:04.008Z,15.10
2022-10-05T08:05:37.238Z,15.10
2022-10-05T08:08:15.542Z,15.20
2022-10-05T08:10:53.465Z,15.20
2022-10-05T08:13:27.568Z,15.30
2022-10-05T08:16:00.386Z,15.30
2022-10-05T08:18:48.562Z,15.30
2022-10-05T08:21:23.265Z,15.10
2022-10-05T08:23:56.700Z,15.10
2022-10-05T08:26:35.930Z,15.20
2022-10-05T08:29:14.952Z,15.10
2022-10-05T08:31:47.353Z,15.20
2022-10-05T08:34:23.941Z,15.20
2022-10-05T08:37:03.422Z,15.30
2022-10-05T08:39:37.480Z,15.30
2022-10-05T08:42:40.118Z,15.30
2022-10-05T08:45:48.202Z,15.40
2022-10-05T08:48:59.398Z,15.40
2022-10-05T08:51:56.713Z,15.40
2022-10-05T08:54:49.933Z,15.40
2022-10-05T08:57:44.068Z,15.40
2022-10-05T09:00:17.621Z,15.30
2022-10-05T09:03:17.294Z,15.30
2022-10-05T09:06:33.609Z,15.30
2022-10-05T09:09:45.939Z,15.30
2022-10-05T09:12:40.577Z,15.30
2022-10-05T09:15:35.077Z,15.30
2022-10-05T09:18:30.730Z,15.30
2022-10-05T09:21:03.844Z,15.30
2022-10-05T09:23:42.249Z,15.40
2022-10-05T09:26:30.545Z,15.40
2022-10-05T09:29:20.740Z,15.40
2022-10-05T09:32:12.950Z,15.50
2022-10-05T09:35:17.146Z,15.60
2022-10-05T09:38:10.378Z,15.70
2022-10-05T09:41:25.146Z,15.80
2022-10-05T09:44:22.091Z,15.90
2022-10-05T09:47:04.450Z,16.10
2022-10-05T09:50:08.467Z,16.20
2022-10-05T09:53:00.207Z,16.20
2022-10-05T09:55:59.871Z,16.30
2022-10-05T09:59:13.382Z,16.50
2022-10-05T10:02:14.158Z,16.50
2022-10-05T10:05:08.920Z,16.70
2022-10-05T10:08:08.438Z,16.60
2022-10-05T10:10:56.731Z,16.70
2022-10-05T10:14:00.322Z,16.80
2022-10-05T10:16:49.909Z,16.80
2022-10-05T10:19:57.432Z,17.00
2022-10-05T10:23:11.043Z,17.10
2022-10-05T10:26:11.423Z,17.30
2022-10-05T10:29:12.455Z,17.40
2022-10-05T10:32:11.738Z,17.50
2022-10-05T10:35:24.937Z,17.50
2022-10-05T10:38:24.821Z,17.60
2022-10-05T10:41:31.021Z,17.80
2022-10-05T10:44:35.562Z,17.90
2022-10-05T10:47:35.248Z,18.00
2022-10-05T10:50:42.459Z,18.00
2022-10-05T10:53:38.930Z,18.10
2022-10-05T10:56:30.799Z,18.20
2022-10-05T10:59:31.787Z,18.20
2022-10-05T11:02:28.340Z,18.10
2022-10-05T11:05:16.600Z,18.20
2022-10-05T11:08:10.438Z,18.30
2022-10-05T11:11:17.880Z,18.30
2022-10-05T11:14:04.132Z,18.50
2022-10-05T11:17:02.619Z,18.50
2022-10-05T11:20:04.708Z,18.60
2022-10-05T11:22:58.910Z,18.60
2022-10-05T11:25:58.864Z,18.70
2022-10-05T11:29:03.569Z,18.80
2022-10-05T11:32:08.958Z,18.90
2022-10-05T11:35:00.460Z,18.90
2022-10-05T11:37:50.012Z,18.70
2022-10-05T11:40:47.719Z,18.90
2022-10-05T11:43:41.815Z,19.10
2022-10-05T11:46:15.000Z,19.20
2022-10-05T11:48:55.769Z,19.40
2022-10-05T11:51:58.659Z,19.70
2022-10-05T11:55:09.273Z,19.80
2022-10-05T11:57:39.129Z,19.70
2022-10-05T12:00:15.028Z,19.80
2022-10-05T12:03:12.944Z,20.30
2022-10-05T12:05:51.499Z,20.50
2022-10-05T12:08:30.967Z,20.70
2022-10-05T12:11:09.089Z,21.00
2022-10-05T12:13:43.401Z,21.40
2022-10-05T12:16:18.711Z,21.50
2022-10-05T12:18:58.168Z,21.30
2022-10-05T12:21:38.481Z,21.50
2022-10-05T12:24:16.640Z,21.30
2022-10-05T12:26:50.360Z,21.50
2022-10-05T12:29:24.858Z,21.80
2022-10-05T12:32:01.306Z,21.90
2022-10-05T12:34:48.782Z,21.70
2022-10-05T12:37:38.409Z,21.80
2022-10-05T12:40:23.160Z,22.20
2022-10-05T12:43:11.598Z,22.60
2022-10-05T12:45:54.104Z,22.30
2022-10-05T12:48:52.635Z,22.90
2022-10-05T12:51:30.188Z,22.80
2022-10-05T12:54:05.467Z,22.60
2022-10-05T12:56:44.218Z,22.90
2022-10-05T12:59:22.398Z,22.80
2022-10-05T13:01:57.619Z,23.00
2022-10-05T13:04:39.520Z,23.40
2022-10-05T13:07:23.749Z,23.70
2022-10-05T13:09:59.909Z,22.80
2022-10-05T13:12:40.959Z,23.40
2022-10-05T13:15:17.316Z,24.00
2022-10-05T13:17:55.488Z,24.40
2022-10-05T13:20:33.964Z,24.30
2022-10-05T13:23:08.992Z,24.20
2022-10-05T13:25:42.728Z,23.90
2022-10-05T13:28:17.470Z,24.00
2022-10-05T13:30:54.348Z,23.80
2022-10-05T13:33:32.332Z,23.90
2022-10-05T13:36:06.910Z,23.90
2022-10-05T13:38:47.742Z,24.30
2022-10-05T13:41:26.368Z,24.10
2022-10-05T13:44:10.891Z,24.90
2022-10-05T13:46:47.350Z,25.40
2022-10-05T13:49:26.761Z,25.00
2022-10-05T13:52:02.392Z,24.60
2022-10-05T13:54:39.019Z,24.10
2022-10-05T13:57:17.679Z,24.20
2022-10-05T13:59:54.574Z,24.40
2022-10-05T14:02:28.981Z,24.50
2022-10-05T14:05:01.721Z,24.50
2022-10-05T14:07:35.368Z,24.80
2022-10-05T14:10:05.702Z,24.70
2022-10-05T14:12:40.969Z,24.40
2022-10-05T14:15:29.518Z,24.60
2022-10-05T14:17:58.179Z,24.80
2022-10-05T14:20:28.710Z,25.00
2022-10-05T14:23:00.942Z,25.00
2022-10-05T14:25:30.977Z,25.40
2022-10-05T14:28:04.219Z,25.50
2022-10-05T14:30:35.119Z,25.70
2022-10-05T14:33:16.068Z,25.40
2022-10-05T14:35:50.257Z,25.40
2022-10-05T14:38:22.393Z,25.40
2022-10-05T14:41:19.172Z,25.50
2022-10-05T14:43:54.078Z,25.10
2022-10-05T14:46:28.741Z,25.20
2022-10-05T14:49:16.141Z,25.00
2022-10-05T14:51:45.912Z,25.10
2022-10-05T14:54:27.619Z,25.30
2022-10-05T14:57:16.472Z,26.00
2022-10-05T15:00:10.646Z,26.10
2022-10-05T15:03:27.467Z,25.60
2022-10-05T15:06:01.922Z,25.20
2022-10-05T15:08:52.812Z,25.10
2022-10-05T15:11:31.537Z,25.30
2022-10-05T15:14:01.737Z,25.40
2022-10-05T15:16:34.974Z,25.40
2022-10-05T15:19:16.274Z,25.20
2022-10-05T15:22:11.848Z,25.20
2022-10-05T15:24:46.337Z,25.00
2022-10-05T15:27:25.553Z,25.20
2022-10-05T15:30:09.888Z,25.30
2022-10-05T15:32:59.172Z,25.20
2022-10-05T15:35:54.532Z,25.30
2022-10-05T15:38:29.643Z,24.60
2022-10-05T15:41:08.235Z,23.80
2022-10-05T15:43:51.367Z,23.20
2022-10-05T15:46:26.248Z,22.60
2022-10-05T15:49:05.402Z,22.10
2022-10-05T15:51:50.955Z,21.60
2022-10-05T15:54:43.629Z,21.50
2022-10-05T15:57:25.957Z,22.00
2022-10-05T16:00:02.181Z,22.40
2022-10-05T16:02:38.835Z,22.80
2022-10-05T16:05:41.318Z,23.10
2022-10-05T16:08:35.437Z,23.00
2022-10-05T16:11:10.097Z,23.20
2022-10-05T16:13:44.635Z,23.30
2022-10-05T16:16:22.301Z,23.10
2022-10-05T16:19:03.490Z,22.80
2022-10-05T16:21:41.497Z,22.70
2022-10-05T16:24:23.866Z,22.60
2022-10-05T16:27:00.640Z,22.30
2022-10-05T16:29:40.815Z,22.00
2022-10-05T16:32:16.910Z,21.80
2022-10-05T16:34:58.795Z,21.40
2022-10-05T16:37:41.224Z,21.00
2022-10-05T16:40:20.731Z,20.70
2022-10-05T16:43:02.090Z,20.40
2022-10-05T16:45:48.712Z,20.10
2022-10-05T16:48:25.513Z,19.90
2022-10-05T16:51:07.637Z,19.70
2022-10-05T16:53:39.329Z,19.60
2022-10-05T16:56:12.376Z,19.40
2022-10-05T16:58:57.325Z,19.30
2022-10-05T17:01:47.053Z,19.20
2022-10-05T17:04:32.779Z,19.10
2022-10-05T17:07:35.229Z,19.00
2022-10-05T17:10:37.301Z,19.00
2022-10-05T17:13:19.827Z,18.90
2022-10-05T17:16:01.299Z,18.90
2022-10-05T17:18:49.113Z,18.80
2022-10-05T17:21:23.682Z,18.70
2022-10-05T17:23:56.557Z,18.70
2022-10-05T17:26:55.620Z,18.70
2022-10-05T17:29:47.802Z,18.60
2022-10-05T17:32:56.489Z,18.60
2022-10-05T17:35:51.088Z,18.50
2022-10-05T17:38:23.240Z,18.50
2022-10-05T17:41:17.049Z,18.40
2022-10-05T17:44:19.616Z,18.40
2022-10-05T17:46:49.872Z,18.40
2022-10-05T17:50:09.215Z,18.40
2022-10-05T17:52:59.982Z,18.30
2022-10-05T17:55:48.428Z,18.30
2022-10-05T17:59:02.922Z,18.30
2022-10-05T18:01:37.771Z,18.30
2022-10-05T18:04:38.798Z,18.30
2022-10-05T18:07:20.540Z,18.30
2022-10-05T18:09:59.480Z,18.30
2022-10-05T18:12:45.532Z,18.30
2022-10-05T18:15:48.800Z,18.30
2022-10-05T18:18:57.470Z,18.20
2022-10-05T18:22:00.302Z,18.20
2022-10-05T18:25:04.161Z,18.20
2022-10-05T18:28:06.266Z,18.10
2022-10-05T18:30:41.879Z,18.10
2022-10-05T18:33:47.835Z,18.10
2022-10-05T18:36:28.866Z,18.00
2022-10-05T18:39:11.210Z,17.90
2022-10-05T18:41:54.432Z,17.80
2022-10-05T18:44:35.868Z,17.80
2022-10-05T18:47:14.960Z,17.90
2022-10-05T18:49:54.631Z,17.90
2022-10-05T18:52:36.347Z,18.00
2022-10-05T18:55:15.497Z,18.00
2022-10-05T18:58:06.982Z,18.00
2022-10-05T19:00:53.309Z,18.00
2022-10-05T19:03:29.506Z,18.10
2022-10-05T19:06:12.192Z,18.10
2022-10-05T19:08:52.715Z,18.10
2022-10-05T19:11:30.036Z,18.10
2022-10-05T19:14:06.607Z,18.00
2022-10-05T19:16:50.986Z,18.00
2022-10-05T19:19:47.671Z,17.90
2022-10-05T19:22:26.135Z,18.00
2022-10-05T19:25:15.568Z,17.90
2022-10-05T19:27:58.372Z,17.90
2022-10-05T19:30:35.306Z,17.90
2022-10-05T19:33:15.145Z,17.90
2022-10-05T19:35:58.573Z,17.90
2022-10-05T19:38:33.842Z,18.00
2022-10-05T19:41:13.609Z,17.90
2022-10-05T19:44:10.766Z,17.90
2022-10-05T19:46:57.106Z,17.90
2022-10-05T19:49:43.618Z,17.80
2022-10-05T19:52:14.824Z,17.90
2022-10-05T19:54:43.755Z,17.90
2022-10-05T19:57:19.202Z,18.00
2022-10-05T19:59:51.107Z,18.00
2022-10-05T20:02:26.515Z,17.90
2022-10-05T20:04:56.657Z,17.90
2022-10-05T20:07:25.142Z,18.00
2022-10-05T20:09:56.927Z,17.90
2022-10-05T20:12:50.678Z,17.90
2022-10-05T20:15:40.248Z,17.90
2022-10-05T20:18:50.604Z,17.90
2022-10-05T20:21:46.217Z,17.90
2022-10-05T20:24:16.937Z,17.90
2022-10-05T20:27:05.547Z,17.80
2022-10-05T20:29:37.199Z,17.80
2022-10-05T20:32:09.948Z,17.80
2022-10-05T20:34:41.418Z,17.70
2022-10-05T20:37:11.621Z,17.70
2022-10-05T20:39:48.724Z,17.70
2022-10-05T20:42:17.783Z,17.70
2022-10-05T20:44:47.085Z,17.70
2022-10-05T20:47:16.944Z,17.70
2022-10-05T20:49:45.603Z,17.70
2022-10-05T20:52:15.165Z,17.80
2022-10-05T20:57:12.955Z,17.70
2022-10-05T20:59:41.534Z,17.80
2022-10-05T21:02:10.549Z,17.80
2022-10-05T21:04:41.651Z,17.80
2022-10-05T21:07:10.568Z,17.80
2022-10-05T21:09:40.997Z,17.70
2022-10-05T21:12:09.807Z,17.80
2022-10-05T21:14:38.479Z,17.80
2022-10-05T21:17:07.619Z,17.80
2022-10-05T21:19:39.440Z,17.80
2022-10-05T21:22:10.888Z,17.80
2022-10-05T21:24:41.547Z,17.80
2022-10-05T21:27:10.766Z,17.80
2022-10-05T21:29:41.806Z,17.70
2022-10-05T21:32:12.001Z,17.70
2022-10-05T21:34:40.947Z,17.60
2022-10-05T21:37:10.930Z,17.60
2022-10-05T21:39:39.740Z,17.70
2022-10-05T21:42:08.639Z,17.60
2022-10-05T21:44:37.625Z,17.60
2022-10-05T21:47:07.078Z,17.60
2022-10-05T21:49:36.748Z,17.60
2022-10-05T21:52:06.822Z,17.60
2022-10-05T21:54:36.931Z,17.60
2022-10-05T21:57:05.812Z,17.60
2022-10-05T21:59:35.778Z,17.70
2022-10-05T22:02:04.590Z,17.70
2022-10-05T22:04:33.415Z,17.60
2022-10-05T22:07:01.981Z,17.80
2022-10-05T22:09:30.690Z,17.70
2022-10-05T22:12:01.342Z,17.90
2022-10-05T22:14:29.859Z,17.90
2022-10-05T22:16:58.319Z,17.90
2022-10-05T22:19:27.025Z,17.90
2022-10-05T22:21:55.862Z,18.00
2022-10-05T22:24:24.433Z,18.00
2022-10-05T22:26:52.920Z,18.00
2022-10-05T22:29:23.036Z,18.10
2022-10-05T22:31:51.564Z,18.10
2022-10-05T22:34:21.331Z,18.10
2022-10-05T22:36:50.441Z,18.20
2022-10-05T22:39:19.039Z,18.20
2022-10-05T22:41:48.068Z,18.20
2022-10-05T22:44:17.039Z,18.20
2022-10-05T22:46:46.794Z,18.10
2022-10-05T22:49:15.193Z,18.10
2022-10-05T22:51:44.378Z,18.10
2022-10-05T22:54:12.763Z,18.10
2022-10-05T22:56:41.165Z,18.10
2022-10-05T22:59:09.503Z,18.20
2022-10-05T23:01:37.913Z,18.20
2022-10-05T23:04:08.871Z,18.20
2022-10-05T23:06:37.289Z,18.30
2022-10-05T23:09:05.936Z,18.30
2022-10-05T23:11:34.571Z,18.30
2022-10-05T23:14:03.418Z,18.30
2022-10-05T23:16:32.258Z,18.20
2022-10-05T23:19:01.052Z,18.20
2022-10-05T23:21:31.639Z,18.20
2022-10-05T23:24:00.010Z,18.20
2022-10-05T23:26:28.479Z,18.10
2022-10-05T23:28:57.025Z,17.60
2022-10-05T23:31:28.102Z,16.90
2022-10-05T23:33:57.042Z,16.30
2022-10-05T23:36:27.672Z,15.70
2022-10-05T23:38:57.569Z,15.40
2022-10-05T23:41:26.180Z,15.00
2022-10-05T23:43:55.991Z,14.70
2022-10-05T23:46:25.718Z,14.60
2022-10-05T23:48:54.360Z,14.30
2022-10-05T23:51:22.969Z,14.20
2022-10-05T23:53:51.323Z,14.00
2022-10-05T23:56:21.458Z,13.90
2022-10-05T23:58:49.989Z,13.80
